sensor_id;sensor_type;location;lat;lon;timestamp;temperature;humidity
11764;DHT22;5939;56.522;14.950;2023-11-21T00:02:20;4.30;99.90
11764;DHT22;5939;56.522;14.950;2023-11-21T00:04:47;4.30;99.90
11764;DHT22;5939;56.522;14.950;2023-11-21T00:07:13;4.30;99.90
11764;DHT22;5939;56.522;14.950;2023-11-21T00:09:40;4.30;99.90
11764;DHT22;5939;56.522;14.950;2023-11-21T00:12:07;4.30;99.90
11764;DHT22;5939;56.522;14.950;2023-11-21T00:14:38;4.30;99.90
11764;DHT22;5939;56.522;14.950;2023-11-21T00:17:04;4.20;99.90
11764;DHT22;5939;56.522;14.950;2023-11-21T00:19:31;4.30;99.90
11764;DHT22;5939;56.522;14.950;2023-11-21T00:21:56;4.20;99.90
11764;DHT22;5939;56.522;14.950;2023-11-21T00:24:23;4.30;99.90
11764;DHT22;5939;56.522;14.950;2023-11-21T00:26:50;4.20;99.90
11764;DHT22;5939;56.522;14.950;2023-11-21T00:29:16;4.30;99.90
11764;DHT22;5939;56.522;14.950;2023-11-21T00:31:43;4.30;99.90
11764;DHT22;5939;56.522;14.950;2023-11-21T00:34:11;4.30;99.90
11764;DHT22;5939;56.522;14.950;2023-11-21T00:36:36;4.30;99.90
11764;DHT22;5939;56.522;14.950;2023-11-21T00:39:02;4.20;99.90
11764;DHT22;5939;56.522;14.950;2023-11-21T00:41:28;4.20;99.90
11764;DHT22;5939;56.522;14.950;2023-11-21T00:43:54;4.30;99.90
11764;DHT22;5939;56.522;14.950;2023-11-21T00:46:20;4.20;99.90
11764;DHT22;5939;56.522;14.950;2023-11-21T00:48:46;4.20;99.90
11764;DHT22;5939;56.522;14.950;2023-11-21T00:51:12;4.30;99.90
11764;DHT22;5939;56.522;14.950;2023-11-21T00:53:38;4.30;99.90
11764;DHT22;5939;56.522;14.950;2023-11-21T00:56:03;4.30;99.90
11764;DHT22;5939;56.522;14.950;2023-11-21T00:58:29;4.20;99.90
11764;DHT22;5939;56.522;14.950;2023-11-21T01:00:55;4.30;99.90
11764;DHT22;5939;56.522;14.950;2023-11-21T01:03:21;4.20;99.90
11764;DHT22;5939;56.522;14.950;2023-11-21T01:05:47;4.20;99.90
11764;DHT22;5939;56.522;14.950;2023-11-21T01:08:15;4.20;99.90
11764;DHT22;5939;56.522;14.950;2023-11-21T01:10:41;4.20;99.90
11764;DHT22;5939;56.522;14.950;2023-11-21T01:13:07;4.20;99.90
11764;DHT22;5939;56.522;14.950;2023-11-21T01:15:33;4.30;99.90
11764;DHT22;5939;56.522;14.950;2023-11-21T01:17:59;4.30;99.90
11764;DHT22;5939;56.522;14.950;2023-11-21T01:20:25;4.20;99.90
11764;DHT22;5939;56.522;14.950;2023-11-21T01:22:51;4.20;99.90
11764;DHT22;5939;56.522;14.950;2023-11-21T01:25:19;4.20;99.90
11764;DHT22;5939;56.522;14.950;2023-11-21T01:27:46;4.30;99.90
11764;DHT22;5939;56.522;14.950;2023-11-21T01:30:12;4.20;99.90
11764;DHT22;5939;56.522;14.950;2023-11-21T01:32:38;4.20;99.90
11764;DHT22;5939;56.522;14.950;2023-11-21T01:35:05;4.30;99.90
11764;DHT22;5939;56.522;14.950;2023-11-21T01:37:32;4.20;99.90
11764;DHT22;5939;56.522;14.950;2023-11-21T01:39:59;4.20;99.90
11764;DHT22;5939;56.522;14.950;2023-11-21T01:42:24;4.20;99.90
11764;DHT22;5939;56.522;14.950;2023-11-21T01:44:50;4.30;99.90
11764;DHT22;5939;56.522;14.950;2023-11-21T01:47:16;4.20;99.90
11764;DHT22;5939;56.522;14.950;2023-11-21T01:49:45;4.20;99.90
11764;DHT22;5939;56.522;14.950;2023-11-21T01:52:12;4.20;99.90
11764;DHT22;5939;56.522;14.950;2023-11-21T01:54:38;4.20;99.90
11764;DHT22;5939;56.522;14.950;2023-11-21T01:57:05;4.20;99.90
11764;DHT22;5939;56.522;14.950;2023-11-21T01:59:38;4.20;99.90
11764;DHT22;5939;56.522;14.950;2023-11-21T02:02:07;4.30;99.90
11764;DHT22;5939;56.522;14.950;2023-11-21T02:04:34;4.20;99.90
11764;DHT22;5939;56.522;14.950;2023-11-21T02:07:00;4.30;99.90
11764;DHT22;5939;56.522;14.950;2023-11-21T02:09:27;4.20;99.90
11764;DHT22;5939;56.522;14.950;2023-11-21T02:11:53;4.20;99.90
11764;DHT22;5939;56.522;14.950;2023-11-21T02:14:20;4.20;99.90
11764;DHT22;5939;56.522;14.950;2023-11-21T02:16:50;4.20;99.90
11764;DHT22;5939;56.522;14.950;2023-11-21T02:19:19;4.20;99.90
11764;DHT22;5939;56.522;14.950;2023-11-21T02:21:51;4.20;99.90
11764;DHT22;5939;56.522;14.950;2023-11-21T02:24:23;4.20;99.90
11764;DHT22;5939;56.522;14.950;2023-11-21T02:26:50;4.20;99.90
11764;DHT22;5939;56.522;14.950;2023-11-21T02:29:19;4.20;99.90
11764;DHT22;5939;56.522;14.950;2023-11-21T02:31:48;4.20;99.90
11764;DHT22;5939;56.522;14.950;2023-11-21T02:34:15;4.20;99.90
11764;DHT22;5939;56.522;14.950;2023-11-21T02:36:41;4.20;99.90
11764;DHT22;5939;56.522;14.950;2023-11-21T02:39:08;4.20;99.90
11764;DHT22;5939;56.522;14.950;2023-11-21T02:41:34;4.20;99.90
11764;DHT22;5939;56.522;14.950;2023-11-21T02:44:00;4.20;99.90
11764;DHT22;5939;56.522;14.950;2023-11-21T02:46:26;4.20;99.90
11764;DHT22;5939;56.522;14.950;2023-11-21T02:48:52;4.20;99.90
11764;DHT22;5939;56.522;14.950;2023-11-21T02:51:20;4.20;99.90
11764;DHT22;5939;56.522;14.950;2023-11-21T02:53:46;4.20;99.90
11764;DHT22;5939;56.522;14.950;2023-11-21T02:56:12;4.20;99.90
11764;DHT22;5939;56.522;14.950;2023-11-21T02:58:41;4.20;99.90
11764;DHT22;5939;56.522;14.950;2023-11-21T03:01:07;4.20;99.90
11764;DHT22;5939;56.522;14.950;2023-11-21T03:03:32;4.20;99.90
11764;DHT22;5939;56.522;14.950;2023-11-21T03:05:58;4.20;99.90
11764;DHT22;5939;56.522;14.950;2023-11-21T03:08:24;4.20;99.90
11764;DHT22;5939;56.522;14.950;2023-11-21T03:10:49;4.20;99.90
11764;DHT22;5939;56.522;14.950;2023-11-21T03:13:15;4.20;99.90
11764;DHT22;5939;56.522;14.950;2023-11-21T03:15:41;4.20;99.90
11764;DHT22;5939;56.522;14.950;2023-11-21T03:18:08;4.20;99.90
11764;DHT22;5939;56.522;14.950;2023-11-21T03:20:33;4.20;99.90
11764;DHT22;5939;56.522;14.950;2023-11-21T03:23:00;4.20;99.90
11764;DHT22;5939;56.522;14.950;2023-11-21T03:25:26;4.20;99.90
11764;DHT22;5939;56.522;14.950;2023-11-21T03:27:52;4.20;99.90
11764;DHT22;5939;56.522;14.950;2023-11-21T03:30:18;4.20;99.90
11764;DHT22;5939;56.522;14.950;2023-11-21T03:32:44;4.10;99.90
11764;DHT22;5939;56.522;14.950;2023-11-21T03:35:10;4.10;99.90
11764;DHT22;5939;56.522;14.950;2023-11-21T03:37:36;4.20;99.90
11764;DHT22;5939;56.522;14.950;2023-11-21T03:40:04;4.20;99.90
11764;DHT22;5939;56.522;14.950;2023-11-21T03:42:30;4.10;99.90
11764;DHT22;5939;56.522;14.950;2023-11-21T03:44:55;4.20;99.90
11764;DHT22;5939;56.522;14.950;2023-11-21T03:47:21;4.20;99.90
11764;DHT22;5939;56.522;14.950;2023-11-21T03:49:47;4.20;99.90
11764;DHT22;5939;56.522;14.950;2023-11-21T03:52:12;4.20;99.90
11764;DHT22;5939;56.522;14.950;2023-11-21T03:54:38;4.20;99.90
11764;DHT22;5939;56.522;14.950;2023-11-21T03:57:04;4.10;99.90
11764;DHT22;5939;56.522;14.950;2023-11-21T03:59:30;4.10;99.90
11764;DHT22;5939;56.522;14.950;2023-11-21T04:01:56;4.20;99.90
11764;DHT22;5939;56.522;14.950;2023-11-21T04:04:22;4.10;99.90
11764;DHT22;5939;56.522;14.950;2023-11-21T04:06:48;4.10;99.90
11764;DHT22;5939;56.522;14.950;2023-11-21T04:09:13;4.10;99.90
11764;DHT22;5939;56.522;14.950;2023-11-21T04:11:39;4.10;99.90
11764;DHT22;5939;56.522;14.950;2023-11-21T04:14:05;4.10;99.90
11764;DHT22;5939;56.522;14.950;2023-11-21T04:16:31;4.10;99.90
11764;DHT22;5939;56.522;14.950;2023-11-21T04:18:56;4.10;99.90
11764;DHT22;5939;56.522;14.950;2023-11-21T04:21:22;4.10;99.90
11764;DHT22;5939;56.522;14.950;2023-11-21T04:23:49;5.50;99.90
11764;DHT22;5939;56.522;14.950;2023-11-21T04:26:15;4.10;99.90
11764;DHT22;5939;56.522;14.950;2023-11-21T04:28:40;4.10;99.90
11764;DHT22;5939;56.522;14.950;2023-11-21T04:31:06;4.10;99.90
11764;DHT22;5939;56.522;14.950;2023-11-21T04:33:32;4.10;99.90
11764;DHT22;5939;56.522;14.950;2023-11-21T04:35:58;4.10;99.90
11764;DHT22;5939;56.522;14.950;2023-11-21T04:38:24;4.10;99.90
11764;DHT22;5939;56.522;14.950;2023-11-21T04:40:49;4.10;99.90
11764;DHT22;5939;56.522;14.950;2023-11-21T04:43:15;4.00;99.90
11764;DHT22;5939;56.522;14.950;2023-11-21T04:45:41;4.10;99.90
11764;DHT22;5939;56.522;14.950;2023-11-21T04:48:07;4.10;99.90
11764;DHT22;5939;56.522;14.950;2023-11-21T04:50:34;4.00;99.90
11764;DHT22;5939;56.522;14.950;2023-11-21T04:53:00;4.00;99.90
11764;DHT22;5939;56.522;14.950;2023-11-21T04:55:25;4.00;99.90
11764;DHT22;5939;56.522;14.950;2023-11-21T04:57:54;4.00;99.90
11764;DHT22;5939;56.522;14.950;2023-11-21T05:00:20;4.00;99.90
11764;DHT22;5939;56.522;14.950;2023-11-21T05:02:47;4.00;99.90
11764;DHT22;5939;56.522;14.950;2023-11-21T05:05:12;4.00;99.90
11764;DHT22;5939;56.522;14.950;2023-11-21T05:07:40;4.00;99.90
11764;DHT22;5939;56.522;14.950;2023-11-21T05:10:07;4.00;99.90
11764;DHT22;5939;56.522;14.950;2023-11-21T05:12:36;4.00;99.90
11764;DHT22;5939;56.522;14.950;2023-11-21T05:15:05;4.00;99.90
11764;DHT22;5939;56.522;14.950;2023-11-21T05:17:37;4.00;99.90
11764;DHT22;5939;56.522;14.950;2023-11-21T05:20:06;4.00;99.90
11764;DHT22;5939;56.522;14.950;2023-11-21T05:22:34;3.90;99.90
11764;DHT22;5939;56.522;14.950;2023-11-21T05:25:00;4.00;99.90
11764;DHT22;5939;56.522;14.950;2023-11-21T05:27:25;3.90;99.90
11764;DHT22;5939;56.522;14.950;2023-11-21T05:29:51;4.00;99.90
11764;DHT22;5939;56.522;14.950;2023-11-21T05:32:17;3.90;99.90
11764;DHT22;5939;56.522;14.950;2023-11-21T05:34:43;3.90;99.90
11764;DHT22;5939;56.522;14.950;2023-11-21T05:37:08;3.90;99.90
11764;DHT22;5939;56.522;14.950;2023-11-21T05:39:34;3.90;99.90
11764;DHT22;5939;56.522;14.950;2023-11-21T05:42:01;3.90;99.90
11764;DHT22;5939;56.522;14.950;2023-11-21T05:44:26;3.90;99.90
11764;DHT22;5939;56.522;14.950;2023-11-21T05:46:52;3.90;99.90
11764;DHT22;5939;56.522;14.950;2023-11-21T05:49:18;3.90;99.90
11764;DHT22;5939;56.522;14.950;2023-11-21T05:51:47;3.90;99.90
11764;DHT22;5939;56.522;14.950;2023-11-21T05:54:13;3.80;99.90
11764;DHT22;5939;56.522;14.950;2023-11-21T05:56:38;3.80;99.90
11764;DHT22;5939;56.522;14.950;2023-11-21T05:59:04;3.90;99.90
11764;DHT22;5939;56.522;14.950;2023-11-21T06:01:30;3.80;99.90
11764;DHT22;5939;56.522;14.950;2023-11-21T06:03:55;3.80;99.90
11764;DHT22;5939;56.522;14.950;2023-11-21T06:06:21;3.80;99.90
11764;DHT22;5939;56.522;14.950;2023-11-21T06:08:52;3.80;99.90
11764;DHT22;5939;56.522;14.950;2023-11-21T06:11:17;3.80;99.90
11764;DHT22;5939;56.522;14.950;2023-11-21T06:13:44;3.80;99.90
11764;DHT22;5939;56.522;14.950;2023-11-21T06:16:09;3.80;99.90
11764;DHT22;5939;56.522;14.950;2023-11-21T06:18:35;3.80;99.90
11764;DHT22;5939;56.522;14.950;2023-11-21T06:21:01;3.80;99.90
11764;DHT22;5939;56.522;14.950;2023-11-21T06:23:26;3.80;99.90
11764;DHT22;5939;56.522;14.950;2023-11-21T06:25:52;3.80;99.90
11764;DHT22;5939;56.522;14.950;2023-11-21T06:28:18;3.80;99.90
11764;DHT22;5939;56.522;14.950;2023-11-21T06:30:44;3.70;99.90
11764;DHT22;5939;56.522;14.950;2023-11-21T06:33:12;3.70;99.90
11764;DHT22;5939;56.522;14.950;2023-11-21T06:35:38;3.80;99.90
11764;DHT22;5939;56.522;14.950;2023-11-21T06:38:04;3.70;99.90
11764;DHT22;5939;56.522;14.950;2023-11-21T06:40:29;3.70;99.90
11764;DHT22;5939;56.522;14.950;2023-11-21T06:42:55;3.70;99.90
11764;DHT22;5939;56.522;14.950;2023-11-21T06:45:21;3.70;99.90
11764;DHT22;5939;56.522;14.950;2023-11-21T06:47:47;3.70;99.90
11764;DHT22;5939;56.522;14.950;2023-11-21T06:50:14;3.70;99.90
11764;DHT22;5939;56.522;14.950;2023-11-21T06:52:39;3.70;99.90
11764;DHT22;5939;56.522;14.950;2023-11-21T06:55:05;3.70;99.90
11764;DHT22;5939;56.522;14.950;2023-11-21T06:57:33;3.70;99.90
11764;DHT22;5939;56.522;14.950;2023-11-21T06:59:59;3.70;99.90
11764;DHT22;5939;56.522;14.950;2023-11-21T07:02:25;3.70;99.90
11764;DHT22;5939;56.522;14.950;2023-11-21T07:04:50;3.60;99.90
11764;DHT22;5939;56.522;14.950;2023-11-21T07:07:16;3.60;99.90
11764;DHT22;5939;56.522;14.950;2023-11-21T07:09:42;3.60;99.90
11764;DHT22;5939;56.522;14.950;2023-11-21T07:12:08;3.60;99.90
11764;DHT22;5939;56.522;14.950;2023-11-21T07:14:34;3.60;99.90
11764;DHT22;5939;56.522;14.950;2023-11-21T07:17:00;3.60;99.90
11764;DHT22;5939;56.522;14.950;2023-11-21T07:19:26;3.60;99.90
11764;DHT22;5939;56.522;14.950;2023-11-21T07:21:51;3.60;99.90
11764;DHT22;5939;56.522;14.950;2023-11-21T07:24:17;3.60;99.90
11764;DHT22;5939;56.522;14.950;2023-11-21T07:26:43;3.60;99.90
11764;DHT22;5939;56.522;14.950;2023-11-21T07:29:09;3.50;99.90
11764;DHT22;5939;56.522;14.950;2023-11-21T07:31:34;3.60;99.90
11764;DHT22;5939;56.522;14.950;2023-11-21T07:34:00;3.50;99.90
11764;DHT22;5939;56.522;14.950;2023-11-21T07:36:26;3.60;99.90
11764;DHT22;5939;56.522;14.950;2023-11-21T07:38:52;3.50;99.90
11764;DHT22;5939;56.522;14.950;2023-11-21T07:41:18;3.50;99.90
11764;DHT22;5939;56.522;14.950;2023-11-21T07:43:44;3.50;99.90
11764;DHT22;5939;56.522;14.950;2023-11-21T07:46:11;3.50;99.90
11764;DHT22;5939;56.522;14.950;2023-11-21T07:48:38;3.50;99.90
11764;DHT22;5939;56.522;14.950;2023-11-21T07:51:04;3.50;99.90
11764;DHT22;5939;56.522;14.950;2023-11-21T07:53:30;3.50;99.90
11764;DHT22;5939;56.522;14.950;2023-11-21T07:55:56;3.50;99.90
11764;DHT22;5939;56.522;14.950;2023-11-21T07:58:22;3.50;99.90
11764;DHT22;5939;56.522;14.950;2023-11-21T08:00:49;3.50;99.90
11764;DHT22;5939;56.522;14.950;2023-11-21T08:03:15;3.50;99.90
11764;DHT22;5939;56.522;14.950;2023-11-21T08:05:41;3.50;99.90
11764;DHT22;5939;56.522;14.950;2023-11-21T08:08:07;3.50;99.90
11764;DHT22;5939;56.522;14.950;2023-11-21T08:10:33;3.50;99.90
11764;DHT22;5939;56.522;14.950;2023-11-21T08:12:59;3.50;99.90
11764;DHT22;5939;56.522;14.950;2023-11-21T08:15:24;3.50;99.90
11764;DHT22;5939;56.522;14.950;2023-11-21T08:17:50;3.50;99.90
11764;DHT22;5939;56.522;14.950;2023-11-21T08:20:16;3.40;99.90
11764;DHT22;5939;56.522;14.950;2023-11-21T08:22:44;3.50;99.90
11764;DHT22;5939;56.522;14.950;2023-11-21T08:25:10;3.50;99.90
11764;DHT22;5939;56.522;14.950;2023-11-21T08:27:36;3.40;99.90
11764;DHT22;5939;56.522;14.950;2023-11-21T08:30:03;3.50;99.90
11764;DHT22;5939;56.522;14.950;2023-11-21T08:32:29;3.40;99.90
11764;DHT22;5939;56.522;14.950;2023-11-21T08:34:59;3.50;99.90
11764;DHT22;5939;56.522;14.950;2023-11-21T08:37:25;3.50;99.90
11764;DHT22;5939;56.522;14.950;2023-11-21T08:39:52;3.50;99.90
11764;DHT22;5939;56.522;14.950;2023-11-21T08:42:19;3.40;99.90
11764;DHT22;5939;56.522;14.950;2023-11-21T08:44:44;3.40;99.90
11764;DHT22;5939;56.522;14.950;2023-11-21T08:47:10;3.40;99.90
11764;DHT22;5939;56.522;14.950;2023-11-21T08:49:36;3.40;99.90
11764;DHT22;5939;56.522;14.950;2023-11-21T08:52:01;3.40;99.90
11764;DHT22;5939;56.522;14.950;2023-11-21T08:54:27;3.40;99.90
11764;DHT22;5939;56.522;14.950;2023-11-21T08:56:54;3.40;99.90
11764;DHT22;5939;56.522;14.950;2023-11-21T08:59:20;3.40;99.90
11764;DHT22;5939;56.522;14.950;2023-11-21T09:01:47;3.50;99.90
11764;DHT22;5939;56.522;14.950;2023-11-21T09:04:12;3.40;99.90
11764;DHT22;5939;56.522;14.950;2023-11-21T09:06:39;3.50;99.90
11764;DHT22;5939;56.522;14.950;2023-11-21T09:09:05;3.40;99.90
11764;DHT22;5939;56.522;14.950;2023-11-21T09:11:32;3.40;99.90
11764;DHT22;5939;56.522;14.950;2023-11-21T09:14:00;3.40;99.90
11764;DHT22;5939;56.522;14.950;2023-11-21T09:16:26;3.50;99.90
11764;DHT22;5939;56.522;14.950;2023-11-21T09:18:51;3.50;99.90
11764;DHT22;5939;56.522;14.950;2023-11-21T09:21:17;3.50;99.90
11764;DHT22;5939;56.522;14.950;2023-11-21T09:23:44;3.50;99.90
11764;DHT22;5939;56.522;14.950;2023-11-21T09:26:10;3.50;99.90
11764;DHT22;5939;56.522;14.950;2023-11-21T09:28:36;3.50;99.90
11764;DHT22;5939;56.522;14.950;2023-11-21T09:31:06;3.50;99.90
11764;DHT22;5939;56.522;14.950;2023-11-21T09:33:35;3.50;99.90
11764;DHT22;5939;56.522;14.950;2023-11-21T09:36:00;3.50;99.90
11764;DHT22;5939;56.522;14.950;2023-11-21T09:38:26;3.50;99.90
11764;DHT22;5939;56.522;14.950;2023-11-21T09:40:54;3.50;99.90
11764;DHT22;5939;56.522;14.950;2023-11-21T09:43:21;3.50;99.90
11764;DHT22;5939;56.522;14.950;2023-11-21T09:45:52;3.50;99.90
11764;DHT22;5939;56.522;14.950;2023-11-21T09:48:20;3.50;99.90
11764;DHT22;5939;56.522;14.950;2023-11-21T09:50:47;3.50;99.90
11764;DHT22;5939;56.522;14.950;2023-11-21T09:53:17;3.50;99.90
11764;DHT22;5939;56.522;14.950;2023-11-21T09:55:45;3.50;99.90
11764;DHT22;5939;56.522;14.950;2023-11-21T09:58:13;3.50;99.90
11764;DHT22;5939;56.522;14.950;2023-11-21T10:00:43;3.50;99.90
11764;DHT22;5939;56.522;14.950;2023-11-21T10:03:10;3.60;99.90
11764;DHT22;5939;56.522;14.950;2023-11-21T10:05:36;3.60;99.90
11764;DHT22;5939;56.522;14.950;2023-11-21T10:08:09;3.60;99.90
11764;DHT22;5939;56.522;14.950;2023-11-21T10:10:36;3.60;99.90
11764;DHT22;5939;56.522;14.950;2023-11-21T10:13:03;3.60;99.90
11764;DHT22;5939;56.522;14.950;2023-11-21T10:15:36;3.60;99.90
11764;DHT22;5939;56.522;14.950;2023-11-21T10:18:03;3.60;99.90
11764;DHT22;5939;56.522;14.950;2023-11-21T10:20:30;3.60;99.90
11764;DHT22;5939;56.522;14.950;2023-11-21T10:22:56;3.60;99.90
11764;DHT22;5939;56.522;14.950;2023-11-21T10:25:22;3.60;99.90
11764;DHT22;5939;56.522;14.950;2023-11-21T10:27:49;3.70;99.90
11764;DHT22;5939;56.522;14.950;2023-11-21T10:30:17;3.60;99.90
11764;DHT22;5939;56.522;14.950;2023-11-21T10:32:44;3.70;99.90
11764;DHT22;5939;56.522;14.950;2023-11-21T10:35:10;3.70;99.90
11764;DHT22;5939;56.522;14.950;2023-11-21T10:37:39;3.70;99.90
11764;DHT22;5939;56.522;14.950;2023-11-21T10:40:09;3.70;99.90
11764;DHT22;5939;56.522;14.950;2023-11-21T10:42:38;3.70;99.90
11764;DHT22;5939;56.522;14.950;2023-11-21T10:45:08;3.70;99.90
11764;DHT22;5939;56.522;14.950;2023-11-21T10:47:43;3.70;99.90
11764;DHT22;5939;56.522;14.950;2023-11-21T10:50:09;3.70;99.90
11764;DHT22;5939;56.522;14.950;2023-11-21T10:52:40;3.70;99.90
11764;DHT22;5939;56.522;14.950;2023-11-21T10:55:18;3.70;99.90
11764;DHT22;5939;56.522;14.950;2023-11-21T10:57:48;3.80;99.90
11764;DHT22;5939;56.522;14.950;2023-11-21T11:00:16;3.70;99.90
11764;DHT22;5939;56.522;14.950;2023-11-21T11:02:48;3.70;99.90
11764;DHT22;5939;56.522;14.950;2023-11-21T11:05:19;3.80;99.90
11764;DHT22;5939;56.522;14.950;2023-11-21T11:07:48;3.80;99.90
11764;DHT22;5939;56.522;14.950;2023-11-21T11:10:14;3.80;99.90
11764;DHT22;5939;56.522;14.950;2023-11-21T11:12:41;3.80;99.90
11764;DHT22;5939;56.522;14.950;2023-11-21T11:15:08;3.80;99.90
11764;DHT22;5939;56.522;14.950;2023-11-21T11:17:37;3.80;99.90
11764;DHT22;5939;56.522;14.950;2023-11-21T11:20:08;3.80;99.90
11764;DHT22;5939;56.522;14.950;2023-11-21T11:28:07;3.80;99.90
11764;DHT22;5939;56.522;14.950;2023-11-21T11:31:04;3.80;99.90
11764;DHT22;5939;56.522;14.950;2023-11-21T11:38:46;3.80;99.90
11764;DHT22;5939;56.522;14.950;2023-11-21T11:41:11;3.80;99.90
11764;DHT22;5939;56.522;14.950;2023-11-21T11:43:37;3.90;99.90
11764;DHT22;5939;56.522;14.950;2023-11-21T11:46:10;3.90;99.90
11764;DHT22;5939;56.522;14.950;2023-11-21T11:48:39;3.90;99.90
11764;DHT22;5939;56.522;14.950;2023-11-21T11:51:15;3.90;99.90
11764;DHT22;5939;56.522;14.950;2023-11-21T11:53:45;3.90;99.90
11764;DHT22;5939;56.522;14.950;2023-11-21T11:56:29;3.90;99.90
11764;DHT22;5939;56.522;14.950;2023-11-21T11:59:04;3.80;99.90
11764;DHT22;5939;56.522;14.950;2023-11-21T12:01:32;3.80;99.90
11764;DHT22;5939;56.522;14.950;2023-11-21T12:07:00;3.90;99.90
11764;DHT22;5939;56.522;14.950;2023-11-21T12:09:29;3.90;99.90
11764;DHT22;5939;56.522;14.950;2023-11-21T12:11:56;3.80;99.90
11764;DHT22;5939;56.522;14.950;2023-11-21T12:14:22;3.90;99.90
11764;DHT22;5939;56.522;14.950;2023-11-21T12:16:49;3.90;99.90
11764;DHT22;5939;56.522;14.950;2023-11-21T12:19:14;3.80;99.90
11764;DHT22;5939;56.522;14.950;2023-11-21T12:21:40;3.80;99.90
11764;DHT22;5939;56.522;14.950;2023-11-21T12:24:14;3.80;99.90
11764;DHT22;5939;56.522;14.950;2023-11-21T12:26:41;3.80;99.90
11764;DHT22;5939;56.522;14.950;2023-11-21T12:29:08;3.90;99.90
11764;DHT22;5939;56.522;14.950;2023-11-21T12:31:34;3.90;99.90
11764;DHT22;5939;56.522;14.950;2023-11-21T12:34:00;3.90;99.90
11764;DHT22;5939;56.522;14.950;2023-11-21T12:36:26;3.90;99.90
11764;DHT22;5939;56.522;14.950;2023-11-21T12:38:52;3.90;99.90
11764;DHT22;5939;56.522;14.950;2023-11-21T12:41:18;3.90;99.90
11764;DHT22;5939;56.522;14.950;2023-11-21T12:43:43;3.90;99.90
11764;DHT22;5939;56.522;14.950;2023-11-21T12:46:12;3.90;99.90
11764;DHT22;5939;56.522;14.950;2023-11-21T12:48:40;3.90;99.90
11764;DHT22;5939;56.522;14.950;2023-11-21T12:51:10;3.80;99.90
11764;DHT22;5939;56.522;14.950;2023-11-21T12:53:38;3.80;99.90
11764;DHT22;5939;56.522;14.950;2023-11-21T12:56:07;3.90;99.90
11764;DHT22;5939;56.522;14.950;2023-11-21T12:58:36;3.90;99.90
11764;DHT22;5939;56.522;14.950;2023-11-21T13:01:02;3.80;99.90
11764;DHT22;5939;56.522;14.950;2023-11-21T13:03:31;3.90;99.90
11764;DHT22;5939;56.522;14.950;2023-11-21T13:05:58;3.80;99.90
11764;DHT22;5939;56.522;14.950;2023-11-21T13:08:25;3.80;99.90
11764;DHT22;5939;56.522;14.950;2023-11-21T13:10:53;3.90;99.90
11764;DHT22;5939;56.522;14.950;2023-11-21T13:13:22;3.90;99.90
11764;DHT22;5939;56.522;14.950;2023-11-21T13:15:54;3.80;99.90
11764;DHT22;5939;56.522;14.950;2023-11-21T13:18:27;3.90;99.90
11764;DHT22;5939;56.522;14.950;2023-11-21T13:20:58;3.80;99.90
11764;DHT22;5939;56.522;14.950;2023-11-21T13:23:25;3.90;99.90
11764;DHT22;5939;56.522;14.950;2023-11-21T13:25:54;3.90;99.90
11764;DHT22;5939;56.522;14.950;2023-11-21T13:28:20;3.90;99.90
11764;DHT22;5939;56.522;14.950;2023-11-21T13:30:48;3.80;99.90
11764;DHT22;5939;56.522;14.950;2023-11-21T13:33:14;3.90;99.90
11764;DHT22;5939;56.522;14.950;2023-11-21T13:35:43;3.90;99.90
11764;DHT22;5939;56.522;14.950;2023-11-21T13:38:17;3.90;99.90
11764;DHT22;5939;56.522;14.950;2023-11-21T13:40:50;3.90;99.90
11764;DHT22;5939;56.522;14.950;2023-11-21T13:43:20;3.90;99.90
11764;DHT22;5939;56.522;14.950;2023-11-21T13:45:48;3.90;99.90
11764;DHT22;5939;56.522;14.950;2023-11-21T13:48:20;3.90;99.90
11764;DHT22;5939;56.522;14.950;2023-11-21T13:50:53;3.90;99.90
11764;DHT22;5939;56.522;14.950;2023-11-21T13:53:34;3.90;99.90
11764;DHT22;5939;56.522;14.950;2023-11-21T13:56:03;3.90;99.90
11764;DHT22;5939;56.522;14.950;2023-11-21T13:58:29;3.90;99.90
11764;DHT22;5939;56.522;14.950;2023-11-21T14:01:10;3.90;99.90
11764;DHT22;5939;56.522;14.950;2023-11-21T14:04:00;3.90;99.90
11764;DHT22;5939;56.522;14.950;2023-11-21T14:06:35;3.90;99.90
11764;DHT22;5939;56.522;14.950;2023-11-21T14:09:11;3.90;99.90
11764;DHT22;5939;56.522;14.950;2023-11-21T14:11:39;3.90;99.90
11764;DHT22;5939;56.522;14.950;2023-11-21T14:14:05;3.90;99.90
11764;DHT22;5939;56.522;14.950;2023-11-21T14:16:31;3.90;99.90
11764;DHT22;5939;56.522;14.950;2023-11-21T14:18:56;3.90;99.90
11764;DHT22;5939;56.522;14.950;2023-11-21T14:21:29;3.90;99.90
11764;DHT22;5939;56.522;14.950;2023-11-21T14:23:54;3.90;99.90
11764;DHT22;5939;56.522;14.950;2023-11-21T14:26:21;3.90;99.90
11764;DHT22;5939;56.522;14.950;2023-11-21T14:28:46;3.90;99.90
11764;DHT22;5939;56.522;14.950;2023-11-21T14:31:14;3.90;99.90
11764;DHT22;5939;56.522;14.950;2023-11-21T14:33:43;3.90;99.90
11764;DHT22;5939;56.522;14.950;2023-11-21T14:36:09;3.90;99.90
11764;DHT22;5939;56.522;14.950;2023-11-21T14:38:36;3.90;99.90
11764;DHT22;5939;56.522;14.950;2023-11-21T14:41:03;3.90;99.90
11764;DHT22;5939;56.522;14.950;2023-11-21T14:43:29;3.90;99.90
11764;DHT22;5939;56.522;14.950;2023-11-21T14:45:59;3.90;99.90
11764;DHT22;5939;56.522;14.950;2023-11-21T14:48:25;3.90;99.90
11764;DHT22;5939;56.522;14.950;2023-11-21T14:51:13;3.90;99.90
11764;DHT22;5939;56.522;14.950;2023-11-21T14:53:54;3.90;99.90
11764;DHT22;5939;56.522;14.950;2023-11-21T14:56:23;3.90;99.90
11764;DHT22;5939;56.522;14.950;2023-11-21T14:59:00;3.90;99.90
11764;DHT22;5939;56.522;14.950;2023-11-21T15:01:32;3.90;99.90
11764;DHT22;5939;56.522;14.950;2023-11-21T15:04:19;3.90;99.90
11764;DHT22;5939;56.522;14.950;2023-11-21T15:07:10;3.90;99.90
11764;DHT22;5939;56.522;14.950;2023-11-21T15:09:39;3.90;99.90
11764;DHT22;5939;56.522;14.950;2023-11-21T15:12:08;3.90;99.90
11764;DHT22;5939;56.522;14.950;2023-11-21T15:14:44;3.90;99.90
11764;DHT22;5939;56.522;14.950;2023-11-21T15:17:12;3.90;99.90
11764;DHT22;5939;56.522;14.950;2023-11-21T15:19:44;3.90;99.90
11764;DHT22;5939;56.522;14.950;2023-11-21T15:22:10;3.90;99.90
11764;DHT22;5939;56.522;14.950;2023-11-21T15:24:40;3.90;99.90
11764;DHT22;5939;56.522;14.950;2023-11-21T15:27:08;3.90;99.90
11764;DHT22;5939;56.522;14.950;2023-11-21T15:29:34;3.90;99.90
11764;DHT22;5939;56.522;14.950;2023-11-21T15:32:00;3.90;99.90
11764;DHT22;5939;56.522;14.950;2023-11-21T15:34:26;3.90;99.90
11764;DHT22;5939;56.522;14.950;2023-11-21T15:36:54;3.90;99.90
11764;DHT22;5939;56.522;14.950;2023-11-21T15:39:20;3.90;99.90
11764;DHT22;5939;56.522;14.950;2023-11-21T15:41:54;3.90;99.90
11764;DHT22;5939;56.522;14.950;2023-11-21T15:44:19;3.90;99.90
11764;DHT22;5939;56.522;14.950;2023-11-21T15:46:45;3.90;99.90
11764;DHT22;5939;56.522;14.950;2023-11-21T15:49:11;3.90;99.90
11764;DHT22;5939;56.522;14.950;2023-11-21T15:51:44;3.90;99.90
11764;DHT22;5939;56.522;14.950;2023-11-21T15:54:21;3.90;99.90
11764;DHT22;5939;56.522;14.950;2023-11-21T15:56:48;3.80;99.90
11764;DHT22;5939;56.522;14.950;2023-11-21T15:59:14;3.80;99.90
11764;DHT22;5939;56.522;14.950;2023-11-21T16:01:40;3.90;99.90